Impacts TAF Board INFO
FOR SITUATIONAL AWARENESS. NOT TO BE USED FOR FLIGHT PLANNING PURPOSES.
IDs:

KBOS - Boston/Logan Intl, MA, US

Issued at 0820 UTC 23 May 2018
Updated at 1056 UTC 23 May 2018
Potential Impact None Slight Moderate High
Time<<23/23Z 24/00Z 24/01Z 24/02Z 24/03Z 24/04Z 24/05Z 24/06Z 24/07Z 24/08Z 24/09Z 24/10Z 24/11Z>>
Type PRVL PRVL PRVL PRVL PRVL PRVL PRVL PRVL PRVL PRVL PRVL PRVL PRVL
VIS >6 >6 >6 >6 >6 >6 >6 >6 >6 >6 >6 >6 >6
CIG -- -- -- -- -- -- -- -- -- -- -- -- --
Cover FEW FEW SCT SCT SCT SCT SCT SCT SCT SCT SCT SCT SCT
FltCat VFR VFR VFR VFR VFR VFR VFR VFR VFR VFR VFR VFR VFR
WX -- -- -- -- -- -- -- -- -- -- -- -- --
WDir 140 140 350 350 350 350 350 350 350 350 350 350 350
WSpd 4 4 8 8 8 8 8 8 8 8 8 8 8
WGst -- -- -- -- -- -- -- -- -- -- -- -- --

Raw TAF
KBOS 230820Z 2308/2412 21006KT P6SM BKN015
  FM230900 22006KT 6SM BR BKN025
  FM231000 24006KT P6SM BKN035
  FM231200 27007KT P6SM SCT070
  FM231400 31007KT P6SM FEW250
  FM231700 14004KT P6SM FEW250
  FM240100 35008KT P6SM SCT150


METAR Board
Radar Display
Forecast Discussion

FOR SITUATIONAL AWARENESS. NOT TO BE USED FOR FLIGHT PLANNING PURPOSES.